Time;durP1;ratioP1;P1;durP2;ratioP2;P2;SDS_P1;SDS_P2;PMS_P1;PMS_P2;Temp;Humidity;BMP_temperature;BMP_pressure;BME280_temperature;BME280_humidity;BME280_pressure;Samples;Min_cycle;Max_cycle;Signal;HPM_P1;HPM_P2
2022/11/03 00:00:45;;;;;;;;;;;18.50;51.70;;;;;;8368897;28;19968;-42
2022/11/03 00:04:45;;;;;;;;;;;18.50;51.60;;;;;;8368995;28;20400;-42
2022/11/03 00:08:46;;;;;;;;;;;18.50;51.70;;;;;;8368999;28;20024;-42
2022/11/03 00:12:46;;;;;;;;;;;18.50;51.70;;;;;;8368486;28;19964;-42
2022/11/03 00:16:47;;;;;;;;;;;18.50;51.70;;;;;;8368817;28;20485;-42
2022/11/03 00:20:54;;;;;;;;;;;18.50;51.70;;;;;;8368269;28;19925;-43
2022/11/03 00:24:54;;;;;;;;;;;18.40;51.70;;;;;;8367889;28;20281;-42
2022/11/03 00:28:59;;;;;;;;;;;18.40;51.60;;;;;;8368210;28;19917;-42
2022/11/03 00:32:59;;;;;;;;;;;18.40;51.60;;;;;;8368251;28;20040;-42
2022/11/03 00:37:00;;;;;;;;;;;18.40;52.10;;;;;;8334789;28;20358;-42
2022/11/03 00:41:01;;;;;;;;;;;18.40;51.60;;;;;;8334933;28;19921;-42
2022/11/03 00:45:02;;;;;;;;;;;18.40;51.60;;;;;;8333985;28;19962;-42
2022/11/03 00:49:03;;;;;;;;;;;18.40;51.60;;;;;;8334465;28;20328;-43
2022/11/03 00:53:03;;;;;;;;;;;18.40;51.60;;;;;;8334315;28;19970;-42
2022/11/03 00:57:04;;;;;;;;;;;18.40;51.60;;;;;;8333876;28;20289;-42
2022/11/03 01:01:06;;;;;;;;;;;18.40;51.60;;;;;;8334012;28;19987;-42
2022/11/03 01:09:27;;;;;;;;;;;18.30;51.50;;;;;;8334895;28;19924;-42
2022/11/03 01:13:27;;;;;;;;;;;18.30;51.50;;;;;;8333617;28;19917;-42
2022/11/03 01:17:28;;;;;;;;;;;18.30;51.50;;;;;;8333700;28;19914;-42
2022/11/03 01:21:28;;;;;;;;;;;18.30;51.50;;;;;;8333179;28;19921;-42
2022/11/03 01:25:29;;;;;;;;;;;18.30;51.50;;;;;;8333512;28;19975;-42
2022/11/03 01:29:29;;;;;;;;;;;18.30;51.50;;;;;;8333226;28;19921;-42
2022/11/03 01:33:30;;;;;;;;;;;18.30;51.50;;;;;;8332516;28;20054;-42
2022/11/03 01:37:30;;;;;;;;;;;18.30;51.50;;;;;;8332896;28;19967;-42
2022/11/03 01:41:31;;;;;;;;;;;18.30;51.50;;;;;;8332826;28;20369;-42
2022/11/03 01:45:31;;;;;;;;;;;18.30;51.50;;;;;;8332161;28;19917;-43
2022/11/03 01:49:40;;;;;;;;;;;18.30;51.40;;;;;;8332683;28;19964;-42
2022/11/03 01:53:42;;;;;;;;;;;18.20;51.40;;;;;;8332520;28;19963;-42
2022/11/03 01:57:45;;;;;;;;;;;18.20;51.40;;;;;;8331729;28;19924;-42
2022/11/03 02:01:46;;;;;;;;;;;18.20;51.30;;;;;;8333028;28;19925;-42
2022/11/03 02:05:48;;;;;;;;;;;18.20;51.40;;;;;;8354115;28;20002;-42
2022/11/03 02:09:49;;;;;;;;;;;18.20;51.30;;;;;;8364439;28;19917;-42
2022/11/03 02:13:49;;;;;;;;;;;18.20;51.30;;;;;;8365212;28;20439;-42
2022/11/03 02:17:50;;;;;;;;;;;18.20;51.40;;;;;;8364875;28;19913;-42
2022/11/03 02:22:09;;;;;;;;;;;18.20;51.40;;;;;;8364363;28;20377;-42
2022/11/03 02:26:11;;;;;;;;;;;18.20;51.40;;;;;;8364656;28;19974;-42
2022/11/03 02:30:12;;;;;;;;;;;18.20;51.30;;;;;;8363704;28;19917;-42
2022/11/03 02:34:20;;;;;;;;;;;18.20;51.30;;;;;;8364273;28;19923;-42
2022/11/03 02:38:22;;;;;;;;;;;18.10;51.30;;;;;;8364314;28;19924;-42
2022/11/03 02:42:23;;;;;;;;;;;18.10;51.30;;;;;;8363972;28;20016;-42
2022/11/03 02:46:24;;;;;;;;;;;18.10;51.20;;;;;;8363960;28;19917;-42
2022/11/03 02:50:26;;;;;;;;;;;18.10;51.30;;;;;;8364036;28;19924;-42
2022/11/03 02:54:40;;;;;;;;;;;18.10;51.30;;;;;;8363472;28;19917;-42
2022/11/03 02:58:41;;;;;;;;;;;18.10;51.20;;;;;;8363916;28;19962;-42
2022/11/03 03:02:46;;;;;;;;;;;18.10;51.30;;;;;;8363692;28;20011;-42
2022/11/03 03:07:00;;;;;;;;;;;18.10;51.20;;;;;;8362915;28;19964;-42
2022/11/03 03:11:02;;;;;;;;;;;18.10;51.30;;;;;;8363306;28;20066;-42
2022/11/03 03:15:04;;;;;;;;;;;18.10;51.30;;;;;;8362582;28;19971;-42
2022/11/03 03:19:15;;;;;;;;;;;18.10;51.20;;;;;;8362923;28;19921;-42
2022/11/03 03:23:18;;;;;;;;;;;18.10;51.20;;;;;;8363249;28;20023;-42
2022/11/03 03:27:19;;;;;;;;;;;18.00;51.20;;;;;;8364773;28;19923;-43
2022/11/03 03:31:21;;;;;;;;;;;18.00;51.20;;;;;;8374383;28;20289;-43
2022/11/03 03:35:23;;;;;;;;;;;18.00;51.20;;;;;;8373904;28;19978;-43
2022/11/03 03:39:25;;;;;;;;;;;18.00;51.10;;;;;;8373391;28;19917;-43
2022/11/03 03:43:28;;;;;;;;;;;18.00;51.10;;;;;;8374248;28;19964;-43
2022/11/03 03:47:30;;;;;;;;;;;18.00;51.10;;;;;;8374118;28;19999;-43
2022/11/03 03:51:30;;;;;;;;;;;18.00;51.20;;;;;;8373596;28;19917;-43
2022/11/03 03:55:38;;;;;;;;;;;18.00;51.10;;;;;;8373976;28;19971;-43
2022/11/03 03:59:39;;;;;;;;;;;18.00;51.10;;;;;;8374052;28;20086;-43
2022/11/03 04:03:39;;;;;;;;;;;18.00;51.20;;;;;;8373095;28;21298;-43
2022/11/03 04:07:45;;;;;;;;;;;18.00;51.20;;;;;;8373967;28;19921;-42
2022/11/03 04:24:48;;;;;;;;;;;17.90;51.00;;;;;;8372223;28;20316;-42
2022/11/03 04:28:50;;;;;;;;;;;17.90;51.00;;;;;;8373339;28;20293;-42
2022/11/03 04:32:51;;;;;;;;;;;17.90;51.00;;;;;;8373575;28;19920;-43
2022/11/03 04:36:52;;;;;;;;;;;17.90;51.00;;;;;;8372670;28;19916;-43
2022/11/03 04:40:54;;;;;;;;;;;18.00;51.10;;;;;;8368315;28;20020;-43
2022/11/03 04:44:54;;;;;;;;;;;18.00;51.10;;;;;;8367985;28;19917;-43
2022/11/03 04:48:57;;;;;;;;;;;17.90;51.00;;;;;;8367206;28;19913;-43
2022/11/03 04:52:58;;;;;;;;;;;17.90;51.00;;;;;;8367512;28;20050;-43
2022/11/03 04:56:58;;;;;;;;;;;17.90;51.00;;;;;;8367331;28;19917;-43
2022/11/03 05:00:59;;;;;;;;;;;17.90;50.90;;;;;;8366766;28;19978;-43
2022/11/03 05:05:01;;;;;;;;;;;17.90;51.00;;;;;;8367180;28;19924;-43
2022/11/03 05:09:04;;;;;;;;;;;17.90;51.00;;;;;;8365540;28;19920;-43
2022/11/03 05:13:08;;;;;;;;;;;17.90;51.00;;;;;;8367163;28;19970;-43
2022/11/03 05:17:22;;;;;;;;;;;17.90;51.00;;;;;;8366684;28;19940;-43
2022/11/03 05:21:25;;;;;;;;;;;17.90;51.00;;;;;;8366298;28;19925;-43
2022/11/03 05:25:37;;;;;;;;;;;17.90;51.00;;;;;;8366604;28;20316;-43
2022/11/03 05:29:37;;;;;;;;;;;17.90;51.00;;;;;;8366534;28;19917;-43
2022/11/03 05:33:39;;;;;;;;;;;17.90;51.00;;;;;;8366172;28;20465;-43
2022/11/03 05:37:40;;;;;;;;;;;17.80;51.00;;;;;;8366327;28;19936;-43
2022/11/03 05:41:41;;;;;;;;;;;17.90;51.00;;;;;;8365863;28;19925;-43
2022/11/03 05:45:42;;;;;;;;;;;17.90;51.00;;;;;;8365490;28;20348;-43
2022/11/03 05:49:42;;;;;;;;;;;17.80;51.00;;;;;;8365883;28;20431;-43
2022/11/03 05:53:43;;;;;;;;;;;17.80;51.00;;;;;;8365705;28;19923;-43
2022/11/03 05:57:44;;;;;;;;;;;17.80;51.00;;;;;;8365111;28;19917;-44
2022/11/03 06:01:44;;;;;;;;;;;17.80;51.00;;;;;;8365261;28;19924;-43
2022/11/03 06:05:45;;;;;;;;;;;17.80;51.00;;;;;;8365009;28;19987;-43
2022/11/03 06:09:46;;;;;;;;;;;17.80;51.00;;;;;;8364545;28;19917;-43
2022/11/03 06:13:46;;;;;;;;;;;17.80;51.00;;;;;;8364991;28;19917;-43
2022/11/03 06:17:46;;;;;;;;;;;17.80;51.00;;;;;;8364672;28;19970;-43
2022/11/03 06:21:51;;;;;;;;;;;17.80;51.00;;;;;;8364315;28;19986;-45
2022/11/03 06:25:52;;;;;;;;;;;17.80;51.00;;;;;;8364883;28;19959;-44
2022/11/03 06:29:58;;;;;;;;;;;17.80;51.00;;;;;;8364571;28;19917;-43
2022/11/03 06:33:58;;;;;;;;;;;17.80;51.00;;;;;;8364021;28;20431;-43
2022/11/03 06:37:59;;;;;;;;;;;17.80;51.00;;;;;;8364497;28;19917;-43
2022/11/03 06:42:08;;;;;;;;;;;17.70;50.90;;;;;;8363601;28;19974;-43
2022/11/03 06:46:13;;;;;;;;;;;17.80;51.10;;;;;;8364979;28;19917;-43
2022/11/03 06:50:32;;;;;;;;;;;17.80;51.00;;;;;;8363764;28;19968;-43
2022/11/03 06:54:33;;;;;;;;;;;17.70;50.90;;;;;;8363132;28;20362;-44
2022/11/03 06:58:35;;;;;;;;;;;17.80;51.00;;;;;;8363816;28;19919;-43
2022/11/03 07:02:55;;;;;;;;;;;17.80;51.00;;;;;;8362835;28;19951;-43
2022/11/03 07:06:58;;;;;;;;;;;17.80;51.00;;;;;;8363041;28;19955;-43
2022/11/03 07:11:00;;;;;;;;;;;17.70;51.00;;;;;;8363483;28;19913;-43
2022/11/03 07:15:01;;;;;;;;;;;17.70;51.00;;;;;;8362753;28;19932;-42
2022/11/03 07:19:08;;;;;;;;;;;17.80;51.00;;;;;;8363621;28;20281;-43
2022/11/03 07:23:11;;;;;;;;;;;17.70;51.00;;;;;;8363342;28;20008;-43
2022/11/03 07:27:20;;;;;;;;;;;17.70;51.00;;;;;;8362592;28;19920;-43
2022/11/03 07:31:22;;;;;;;;;;;17.80;51.10;;;;;;8363204;28;20369;-44
2022/11/03 07:35:25;;;;;;;;;;;17.70;51.00;;;;;;8363019;28;19939;-43
2022/11/03 07:39:29;;;;;;;;;;;17.70;51.00;;;;;;8362784;28;19917;-43
2022/11/03 07:43:31;;;;;;;;;;;17.70;51.00;;;;;;8362874;28;20388;-43
2022/11/03 07:47:31;;;;;;;;;;;17.80;51.10;;;;;;8362869;28;19951;-43
2022/11/03 07:51:33;;;;;;;;;;;17.70;51.10;;;;;;8362232;28;19917;-43
2022/11/03 07:55:34;;;;;;;;;;;17.70;51.00;;;;;;8362570;28;19913;-44
2022/11/03 07:59:45;;;;;;;;;;;17.70;51.10;;;;;;8363332;28;19952;-43
2022/11/03 08:03:46;;;;;;;;;;;17.70;51.10;;;;;;8362002;28;20406;-43
2022/11/03 08:07:46;;;;;;;;;;;17.70;51.10;;;;;;8356675;28;19916;-43
2022/11/03 08:11:47;;;;;;;;;;;17.70;51.10;;;;;;8344185;28;19923;-43
2022/11/03 08:15:48;;;;;;;;;;;17.70;51.10;;;;;;8366321;28;19924;-43
2022/11/03 08:19:48;;;;;;;;;;;17.70;51.10;;;;;;8368788;28;19945;-43
2022/11/03 08:23:49;;;;;;;;;;;17.70;51.10;;;;;;8368175;28;19967;-43
2022/11/03 08:27:49;;;;;;;;;;;17.70;51.20;;;;;;8367951;28;19923;-43
2022/11/03 08:31:50;;;;;;;;;;;17.70;51.10;;;;;;8368204;28;19920;-43
2022/11/03 08:35:50;;;;;;;;;;;17.70;51.20;;;;;;8368140;28;19971;-43
2022/11/03 08:39:51;;;;;;;;;;;17.70;51.20;;;;;;8367737;28;19963;-43
2022/11/03 08:43:51;;;;;;;;;;;17.70;51.20;;;;;;8367628;28;20300;-43
2022/11/03 08:47:52;;;;;;;;;;;17.70;51.20;;;;;;8367773;28;19916;-43
2022/11/03 08:51:52;;;;;;;;;;;17.70;51.30;;;;;;8367066;28;19917;-43
2022/11/03 08:55:53;;;;;;;;;;;17.70;51.20;;;;;;8367600;28;19969;-43
2022/11/03 08:59:54;;;;;;;;;;;17.70;51.20;;;;;;8367667;28;19916;-44
2022/11/03 09:03:55;;;;;;;;;;;17.70;51.30;;;;;;8366928;28;19924;-44
2022/11/03 09:07:55;;;;;;;;;;;17.70;51.30;;;;;;8367266;28;20366;-44
2022/11/03 09:11:56;;;;;;;;;;;17.70;51.30;;;;;;8366974;28;19916;-43
2022/11/03 09:15:56;;;;;;;;;;;17.70;51.20;;;;;;8366410;28;19916;-43
2022/11/03 09:19:57;;;;;;;;;;;17.70;51.20;;;;;;8366745;28;19912;-44
2022/11/03 09:23:58;;;;;;;;;;;17.70;51.30;;;;;;8366451;28;19925;-43
2022/11/03 09:27:59;;;;;;;;;;;17.70;51.30;;;;;;8365297;28;19916;-43
2022/11/03 09:31:59;;;;;;;;;;;17.70;51.30;;;;;;8366389;28;19927;-42
2022/11/03 09:36:01;;;;;;;;;;;17.70;51.30;;;;;;8365660;28;19928;-43
2022/11/03 09:40:01;;;;;;;;;;;17.70;51.30;;;;;;8366260;28;19919;-43
2022/11/03 09:44:02;;;;;;;;;;;17.70;51.30;;;;;;8366038;28;20298;-43
2022/11/03 09:48:03;;;;;;;;;;;17.70;51.30;;;;;;8365607;28;19940;-43
2022/11/03 09:52:04;;;;;;;;;;;17.80;51.30;;;;;;8365935;28;19916;-44
2022/11/03 09:56:04;;;;;;;;;;;17.70;51.20;;;;;;8365821;28;19924;-43
2022/11/03 10:00:07;;;;;;;;;;;17.80;51.30;;;;;;8365479;28;19996;-43
2022/11/03 10:04:08;;;;;;;;;;;17.70;51.20;;;;;;8365033;28;19974;-43
2022/11/03 10:08:34;;;;;;;;;;;17.80;51.30;;;;;;8365163;28;19916;-43
2022/11/03 10:12:36;;;;;;;;;;;17.80;51.30;;;;;;8363305;28;19940;-42
2022/11/03 10:16:36;;;;;;;;;;;17.70;51.20;;;;;;8365057;28;20325;-43
2022/11/03 10:20:37;;;;;;;;;;;17.80;51.30;;;;;;8364913;28;19913;-42
2022/11/03 10:24:37;;;;;;;;;;;17.70;51.30;;;;;;8364287;28;19921;-43
2022/11/03 10:28:38;;;;;;;;;;;17.80;51.30;;;;;;8364667;28;19963;-43
2022/11/03 10:32:40;;;;;;;;;;;17.80;51.30;;;;;;8364527;28;19921;-43
2022/11/03 10:36:40;;;;;;;;;;;17.80;51.30;;;;;;8363116;28;20292;-43
2022/11/03 10:40:41;;;;;;;;;;;17.80;51.30;;;;;;8364210;28;20008;-43
2022/11/03 10:44:41;;;;;;;;;;;17.80;51.30;;;;;;8364172;28;19927;-42
2022/11/03 10:48:42;;;;;;;;;;;17.80;51.30;;;;;;8363467;28;19921;-42
2022/11/03 10:52:42;;;;;;;;;;;17.80;51.30;;;;;;8364113;28;19917;-42
2022/11/03 10:56:43;;;;;;;;;;;17.80;51.30;;;;;;8363907;28;20054;-43
2022/11/03 11:00:44;;;;;;;;;;;17.80;51.30;;;;;;8363505;28;20270;-43
2022/11/03 11:04:45;;;;;;;;;;;17.80;51.30;;;;;;8363444;28;19925;-42
2022/11/03 11:08:46;;;;;;;;;;;17.80;51.30;;;;;;8362603;28;19921;-43
2022/11/03 11:13:05;;;;;;;;;;;17.80;51.30;;;;;;8363052;28;19923;-42
2022/11/03 11:17:26;;;;;;;;;;;17.80;51.30;;;;;;8363432;28;19916;-42
2022/11/03 11:21:39;;;;;;;;;;;17.80;51.30;;;;;;8362872;28;19927;-42
2022/11/03 11:25:58;;;;;;;;;;;17.80;51.30;;;;;;8363275;28;19917;-43
2022/11/03 11:29:59;;;;;;;;;;;17.80;51.30;;;;;;8363061;28;19939;-43
2022/11/03 11:34:09;;;;;;;;;;;17.80;51.30;;;;;;8363091;28;19969;-42
2022/11/03 11:38:28;;;;;;;;;;;17.80;51.30;;;;;;8363323;28;19917;-43
2022/11/03 11:42:28;;;;;;;;;;;17.80;51.30;;;;;;8362500;28;19971;-43
2022/11/03 11:46:38;;;;;;;;;;;17.80;51.30;;;;;;8362918;28;19966;-42
2022/11/03 11:50:39;;;;;;;;;;;17.80;51.40;;;;;;8367653;28;20007;-44
2022/11/03 11:54:40;;;;;;;;;;;17.80;51.40;;;;;;8367746;28;20407;-43
2022/11/03 11:58:41;;;;;;;;;;;17.70;51.30;;;;;;8369273;28;20015;-43
2022/11/03 12:02:45;;;;;;;;;;;17.70;51.40;;;;;;8369184;28;20392;-43
2022/11/03 12:06:45;;;;;;;;;;;17.80;51.40;;;;;;8368267;28;19927;-43
2022/11/03 12:10:52;;;;;;;;;;;17.80;51.40;;;;;;8369292;28;19917;-42
2022/11/03 12:14:53;;;;;;;;;;;17.80;51.50;;;;;;8368899;28;19917;-43
2022/11/03 12:18:54;;;;;;;;;;;17.80;51.40;;;;;;8368156;28;19923;-42
2022/11/03 12:22:54;;;;;;;;;;;17.80;51.40;;;;;;8368554;28;19947;-42
2022/11/03 12:26:55;;;;;;;;;;;17.80;51.40;;;;;;8368350;28;19963;-42
2022/11/03 12:30:56;;;;;;;;;;;17.80;51.40;;;;;;8368027;28;20007;-42
2022/11/03 12:34:56;;;;;;;;;;;17.80;51.40;;;;;;8368373;28;20328;-42
2022/11/03 12:38:57;;;;;;;;;;;17.80;51.40;;;;;;8367997;28;19996;-43
2022/11/03 12:42:57;;;;;;;;;;;17.80;51.40;;;;;;8367498;28;20387;-42
2022/11/03 12:46:58;;;;;;;;;;;17.80;51.40;;;;;;8367699;28;19935;-42
2022/11/03 12:50:58;;;;;;;;;;;17.80;51.40;;;;;;8367893;28;19963;-42
2022/11/03 12:54:59;;;;;;;;;;;17.80;51.40;;;;;;8367040;28;20327;-43
2022/11/03 12:58:59;;;;;;;;;;;17.80;51.40;;;;;;8367404;28;20007;-42
2022/11/03 13:03:00;;;;;;;;;;;17.80;51.40;;;;;;8366138;28;19924;-42
2022/11/03 13:07:00;;;;;;;;;;;17.80;51.40;;;;;;8366760;28;19925;-42
2022/11/03 13:11:01;;;;;;;;;;;17.80;51.40;;;;;;8367397;28;19921;-42
2022/11/03 13:15:04;;;;;;;;;;;17.80;51.50;;;;;;8366348;28;20007;-42
2022/11/03 13:19:04;;;;;;;;;;;17.80;51.50;;;;;;8366786;28;19924;-42
2022/11/03 13:23:05;;;;;;;;;;;17.80;51.50;;;;;;8366578;28;20007;-42
2022/11/03 13:27:05;;;;;;;;;;;17.80;51.50;;;;;;8366306;28;19917;-42
2022/11/03 13:31:06;;;;;;;;;;;17.80;51.60;;;;;;8366753;28;20289;-42
2022/11/03 13:35:06;;;;;;;;;;;17.80;51.50;;;;;;8366284;28;20488;-42
2022/11/03 13:39:07;;;;;;;;;;;17.80;51.50;;;;;;8365795;28;20387;-42
2022/11/03 13:43:07;;;;;;;;;;;17.80;51.50;;;;;;8366066;28;20416;-42
2022/11/03 13:47:08;;;;;;;;;;;17.80;51.50;;;;;;8366404;28;19923;-42
2022/11/03 13:51:10;;;;;;;;;;;17.80;51.60;;;;;;8337497;28;19917;-41
2022/11/03 13:55:11;;;;;;;;;;;17.80;51.50;;;;;;8356740;28;20360;-42
2022/11/03 13:59:11;;;;;;;;;;;17.80;51.50;;;;;;8365736;28;19966;-42
2022/11/03 14:03:12;;;;;;;;;;;17.80;51.50;;;;;;8364827;28;19924;-42
2022/11/03 14:07:12;;;;;;;;;;;17.80;51.50;;;;;;8364670;28;19916;-42
2022/11/03 14:15:33;;;;;;;;;;;17.90;52.10;;;;;;8364698;28;20379;-41
2022/11/03 14:19:34;;;;;;;;;;;17.80;51.50;;;;;;8365114;28;19923;-42
2022/11/03 14:23:34;;;;;;;;;;;17.80;51.50;;;;;;8364640;28;19925;-42
2022/11/03 14:27:35;;;;;;;;;;;17.80;51.50;;;;;;8364314;28;19913;-42
2022/11/03 14:31:35;;;;;;;;;;;17.80;51.60;;;;;;8364816;28;19916;-42
2022/11/03 14:35:36;;;;;;;;;;;17.80;51.50;;;;;;8364427;28;19955;-42
2022/11/03 14:39:36;;;;;;;;;;;17.80;51.50;;;;;;8363804;28;19917;-42
2022/11/03 14:43:37;;;;;;;;;;;17.80;51.60;;;;;;8364189;28;20365;-42
2022/11/03 14:47:38;;;;;;;;;;;17.80;51.60;;;;;;8364395;28;19913;-41
2022/11/03 14:51:39;;;;;;;;;;;17.80;51.60;;;;;;8363619;28;20324;-42
2022/11/03 14:55:39;;;;;;;;;;;17.80;51.60;;;;;;8364129;28;19920;-42
2022/11/03 14:59:40;;;;;;;;;;;17.80;51.60;;;;;;8363921;28;19924;-42
2022/11/03 15:03:41;;;;;;;;;;;17.80;51.60;;;;;;8362950;28;20418;-41
2022/11/03 15:07:41;;;;;;;;;;;17.80;51.60;;;;;;8363790;28;19913;-41
2022/11/03 15:11:42;;;;;;;;;;;17.80;51.60;;;;;;8363218;28;19924;-42
2022/11/03 15:15:42;;;;;;;;;;;17.80;51.60;;;;;;8362810;28;20348;-42
2022/11/03 15:19:42;;;;;;;;;;;17.80;51.70;;;;;;8363147;28;19921;-41
2022/11/03 15:23:43;;;;;;;;;;;17.80;52.10;;;;;;8362448;28;19928;-41
2022/11/03 15:27:44;;;;;;;;;;;17.80;51.70;;;;;;8362927;28;19917;-42
2022/11/03 15:31:44;;;;;;;;;;;17.80;51.60;;;;;;8362936;28;20000;-42
2022/11/03 15:35:45;;;;;;;;;;;17.80;51.60;;;;;;8362880;28;19939;-43
2022/11/03 15:39:45;;;;;;;;;;;17.80;51.60;;;;;;8362477;28;20357;-43
2022/11/03 15:43:46;;;;;;;;;;;17.80;51.60;;;;;;8362826;28;19982;-42
2022/11/03 15:47:47;;;;;;;;;;;17.80;51.60;;;;;;8363118;28;20311;-42
2022/11/03 15:51:47;;;;;;;;;;;17.80;51.60;;;;;;8362292;28;20007;-41
2022/11/03 15:55:48;;;;;;;;;;;17.80;51.60;;;;;;8362497;28;19948;-41
2022/11/03 15:59:48;;;;;;;;;;;17.80;51.60;;;;;;8362651;28;19917;-41
2022/11/03 16:03:49;;;;;;;;;;;17.80;51.60;;;;;;8360529;28;19925;-41
2022/11/03 16:07:49;;;;;;;;;;;17.80;51.60;;;;;;8363381;28;19996;-41
2022/11/03 16:11:50;;;;;;;;;;;17.80;51.60;;;;;;8362517;28;19925;-42
2022/11/03 16:15:51;;;;;;;;;;;17.80;51.70;;;;;;8361893;28;19921;-42
2022/11/03 16:19:52;;;;;;;;;;;17.80;51.70;;;;;;8362152;28;19942;-42
2022/11/03 16:23:52;;;;;;;;;;;17.80;51.70;;;;;;8362240;28;20309;-42
2022/11/03 16:27:53;;;;;;;;;;;17.80;51.70;;;;;;8362014;28;19917;-45
2022/11/03 16:31:53;;;;;;;;;;;17.70;51.70;;;;;;8360848;28;19943;-42
2022/11/03 16:35:54;;;;;;;;;;;17.80;51.70;;;;;;8365112;28;19951;-42
2022/11/03 16:39:54;;;;;;;;;;;17.70;51.70;;;;;;8367618;28;19917;-42
2022/11/03 16:43:55;;;;;;;;;;;17.80;51.80;;;;;;8368000;28;19925;-42
2022/11/03 16:47:55;;;;;;;;;;;17.70;51.70;;;;;;8368514;28;19912;-43
2022/11/03 16:51:56;;;;;;;;;;;17.80;52.30;;;;;;8367527;28;19917;-43
2022/11/03 16:55:56;;;;;;;;;;;17.70;51.70;;;;;;8367521;28;20278;-44
2022/11/03 16:59:57;;;;;;;;;;;17.80;51.80;;;;;;8367785;28;19917;-43
2022/11/03 17:03:57;;;;;;;;;;;17.70;51.70;;;;;;8366785;28;19932;-43
2022/11/03 17:07:58;;;;;;;;;;;17.80;51.80;;;;;;8366656;28;20062;-44
2022/11/03 17:11:58;;;;;;;;;;;17.70;51.80;;;;;;8365890;28;19917;-44
2022/11/03 17:15:59;;;;;;;;;;;17.80;51.80;;;;;;8347369;28;19917;-44
2022/11/03 17:19:59;;;;;;;;;;;17.70;51.80;;;;;;8334422;28;19986;-45
2022/11/03 17:24:00;;;;;;;;;;;17.70;51.80;;;;;;8333855;28;19939;-43
2022/11/03 17:28:01;;;;;;;;;;;17.80;51.90;;;;;;8333625;28;19924;-43
2022/11/03 17:32:03;;;;;;;;;;;17.70;51.80;;;;;;8333399;28;19924;-44
2022/11/03 17:36:04;;;;;;;;;;;17.80;51.90;;;;;;8332826;28;20298;-43
2022/11/03 17:40:07;;;;;;;;;;;17.80;52.10;;;;;;8343757;28;19917;-44
2022/11/03 17:44:10;;;;;;;;;;;17.80;51.80;;;;;;8366300;28;19947;-44
2022/11/03 17:48:11;;;;;;;;;;;17.80;51.80;;;;;;8365299;28;19924;-43
2022/11/03 17:52:19;;;;;;;;;;;17.80;51.80;;;;;;8366162;28;20318;-44
2022/11/03 17:56:22;;;;;;;;;;;17.80;51.90;;;;;;8365941;28;20262;-44
2022/11/03 18:00:22;;;;;;;;;;;17.80;51.90;;;;;;8365117;28;20235;-42
2022/11/03 18:04:23;;;;;;;;;;;17.70;51.90;;;;;;8365572;28;19925;-42
2022/11/03 18:08:23;;;;;;;;;;;17.80;52.00;;;;;;8365726;28;20008;-42
2022/11/03 18:16:44;;;;;;;;;;;17.80;52.00;;;;;;8367177;28;19947;-42
2022/11/03 18:20:46;;;;;;;;;;;17.70;52.00;;;;;;8364868;28;20223;-42
2022/11/03 18:24:47;;;;;;;;;;;17.80;52.00;;;;;;8364256;28;19951;-42
2022/11/03 18:28:49;;;;;;;;;;;17.80;52.00;;;;;;8364992;28;19937;-42
2022/11/03 18:32:49;;;;;;;;;;;17.70;52.00;;;;;;8364747;28;20293;-42
2022/11/03 18:36:51;;;;;;;;;;;17.70;52.00;;;;;;8363748;28;19917;-42
2022/11/03 18:40:52;;;;;;;;;;;17.70;52.00;;;;;;8363933;28;20381;-42
2022/11/03 18:44:52;;;;;;;;;;;17.70;52.00;;;;;;8364162;28;19927;-42
2022/11/03 18:48:53;;;;;;;;;;;17.70;52.00;;;;;;8363643;28;19912;-42
2022/11/03 18:52:53;;;;;;;;;;;17.70;52.00;;;;;;8364321;28;19917;-42
2022/11/03 18:56:54;;;;;;;;;;;17.70;52.00;;;;;;8363763;28;19952;-41
2022/11/03 19:00:54;;;;;;;;;;;17.80;52.00;;;;;;8362253;28;19939;-42
2022/11/03 19:04:55;;;;;;;;;;;17.70;51.90;;;;;;8363465;28;20009;-42
2022/11/03 19:08:57;;;;;;;;;;;17.70;51.90;;;;;;8363789;28;20004;-42
2022/11/03 19:12:57;;;;;;;;;;;17.70;51.90;;;;;;8362907;28;19916;-42
2022/11/03 19:16:59;;;;;;;;;;;17.70;51.90;;;;;;8363405;28;19917;-42
2022/11/03 19:21:00;;;;;;;;;;;17.80;52.00;;;;;;8363061;28;19917;-42
2022/11/03 19:25:00;;;;;;;;;;;17.70;52.00;;;;;;8362929;28;20344;-42
2022/11/03 19:29:02;;;;;;;;;;;17.70;52.00;;;;;;8363517;28;19917;-43
2022/11/03 19:33:03;;;;;;;;;;;17.80;52.00;;;;;;8362659;28;19917;-42
2022/11/03 19:37:04;;;;;;;;;;;17.70;52.00;;;;;;8363063;28;20380;-42
2022/11/03 19:45:30;;;;;;;;;;;17.70;52.10;;;;;;8363902;28;19928;-42
2022/11/03 19:49:32;;;;;;;;;;;17.70;52.10;;;;;;8363217;28;19991;-42
2022/11/03 19:53:32;;;;;;;;;;;17.70;52.10;;;;;;8362743;28;19944;-42
2022/11/03 19:57:33;;;;;;;;;;;17.70;52.10;;;;;;8362401;28;20419;-42
2022/11/03 20:01:33;;;;;;;;;;;17.70;52.60;;;;;;8362599;28;19979;-42
2022/11/03 20:05:34;;;;;;;;;;;17.70;52.10;;;;;;8362530;28;20046;-42
2022/11/03 20:09:35;;;;;;;;;;;17.70;52.10;;;;;;8348076;28;19913;-42
2022/11/03 20:13:39;;;;;;;;;;;17.70;52.10;;;;;;8367254;28;19916;-42
2022/11/03 20:17:39;;;;;;;;;;;17.70;52.10;;;;;;8368671;28;19917;-41
2022/11/03 20:21:40;;;;;;;;;;;17.70;52.10;;;;;;8368191;28;20011;-42
2022/11/03 20:25:41;;;;;;;;;;;17.70;52.10;;;;;;8368536;28;20354;-42
2022/11/03 20:29:41;;;;;;;;;;;17.70;52.60;;;;;;8368634;28;19917;-42
2022/11/03 20:33:42;;;;;;;;;;;17.70;52.50;;;;;;8367973;28;20293;-42
2022/11/03 20:37:43;;;;;;;;;;;17.70;52.60;;;;;;8368177;28;20400;-42
2022/11/03 20:41:45;;;;;;;;;;;17.70;52.60;;;;;;8367953;28;19936;-42
2022/11/03 20:45:46;;;;;;;;;;;17.70;52.70;;;;;;8368273;28;19948;-43
2022/11/03 20:49:47;;;;;;;;;;;17.70;52.60;;;;;;8368006;28;19920;-42
2022/11/03 20:53:48;;;;;;;;;;;17.70;52.60;;;;;;8367743;28;20352;-43
2022/11/03 20:57:49;;;;;;;;;;;17.70;52.60;;;;;;8367193;28;19917;-43
2022/11/03 21:01:50;;;;;;;;;;;17.70;52.50;;;;;;8367291;28;19925;-42
2022/11/03 21:05:50;;;;;;;;;;;17.60;52.50;;;;;;8367244;28;19928;-43
2022/11/03 21:09:51;;;;;;;;;;;17.70;52.50;;;;;;8366958;28;20000;-43
2022/11/03 21:13:55;;;;;;;;;;;17.70;52.50;;;;;;8367059;28;20289;-43
2022/11/03 21:22:17;;;;;;;;;;;17.70;52.50;;;;;;8365535;28;20012;-43
2022/11/03 21:26:17;;;;;;;;;;;17.70;52.50;;;;;;8366639;28;19961;-42
2022/11/03 21:30:18;;;;;;;;;;;17.70;52.40;;;;;;8366370;28;19924;-42
2022/11/03 21:34:18;;;;;;;;;;;17.70;52.50;;;;;;8366310;28;19917;-44
2022/11/03 21:38:19;;;;;;;;;;;17.70;52.50;;;;;;8366513;28;19916;-43
2022/11/03 21:46:38;;;;;;;;;;;17.70;52.50;;;;;;8368468;28;19919;-44
2022/11/03 21:50:39;;;;;;;;;;;17.70;52.50;;;;;;8364851;28;19917;-43
2022/11/03 21:54:40;;;;;;;;;;;17.70;52.50;;;;;;8365789;28;19917;-42
2022/11/03 21:58:41;;;;;;;;;;;17.70;52.50;;;;;;8365764;28;20381;-43
2022/11/03 22:02:41;;;;;;;;;;;17.70;52.50;;;;;;8365667;28;20476;-43
2022/11/03 22:06:42;;;;;;;;;;;17.70;52.50;;;;;;8365010;28;19928;-43
2022/11/03 22:10:42;;;;;;;;;;;17.70;52.50;;;;;;8365542;28;19959;-43
2022/11/03 22:27:49;;;;;;;;;;;17.70;52.50;;;;;;8364830;28;20076;-42
2022/11/03 22:31:50;;;;;;;;;;;17.70;52.40;;;;;;8364570;28;19932;-42
2022/11/03 22:48:47;;;;;;;;;;;17.70;52.40;;;;;;8364301;28;19924;-42
2022/11/03 22:52:48;;;;;;;;;;;17.70;52.50;;;;;;8364140;28;20019;-42
2022/11/03 22:56:48;;;;;;;;;;;17.70;52.50;;;;;;8363816;28;19939;-42
2022/11/03 23:00:48;;;;;;;;;;;17.70;52.50;;;;;;8362725;28;20373;-42
2022/11/03 23:04:49;;;;;;;;;;;17.70;52.50;;;;;;8363567;28;20475;-42
2022/11/03 23:08:50;;;;;;;;;;;17.70;52.50;;;;;;8362473;28;19963;-41
2022/11/03 23:12:51;;;;;;;;;;;17.70;52.50;;;;;;8363124;28;19917;-42
2022/11/03 23:16:51;;;;;;;;;;;17.70;52.50;;;;;;8363296;28;19924;-42
2022/11/03 23:21:07;;;;;;;;;;;17.70;52.50;;;;;;8363348;28;19964;-42
2022/11/03 23:25:07;;;;;;;;;;;17.70;52.50;;;;;;8363479;28;19924;-42
2022/11/03 23:29:08;;;;;;;;;;;17.70;52.50;;;;;;8363276;28;19932;-42
2022/11/03 23:33:08;;;;;;;;;;;17.70;52.50;;;;;;8362746;28;20587;-42
2022/11/03 23:37:09;;;;;;;;;;;17.70;52.50;;;;;;8363041;28;20000;-42
2022/11/03 23:41:11;;;;;;;;;;;17.70;52.50;;;;;;8363243;28;19920;-43
2022/11/03 23:49:30;;;;;;;;;;;17.70;52.60;;;;;;8369671;28;19924;-43
2022/11/03 23:53:31;;;;;;;;;;;17.70;52.60;;;;;;8369846;28;20318;-44
